Time;durP1;ratioP1;P1;durP2;ratioP2;P2;SDS_P1;SDS_P2;PMS_P1;PMS_P2;Temp;Humidity;BMP_temperature;BMP_pressure;BME280_temperature;BME280_humidity;BME280_pressure;Samples;Min_cycle;Max_cycle;Signal;HPM_P1;HPM_P2
2021/10/02 00:31:33;;;;;;;9.57;4.00;;;12.70;99.90;;;;;;5095104;28;20020;-65
2021/10/02 00:34:21;;;;;;;5.22;3.30;;;12.70;99.90;;;;;;5095707;28;20505;-65
2021/10/02 00:41:14;;;;;;;8.82;4.10;;;12.80;99.90;;;;;;5112267;27;20824;-67
2021/10/02 00:45:00;;;;;;;6.82;4.07;;;12.80;99.90;;;;;;5111226;28;20024;-67
2021/10/02 00:47:28;;;;;;;6.85;3.78;;;12.70;99.90;;;;;;5111870;28;20016;-64
2021/10/02 00:49:55;;;;;;;9.07;4.13;;;12.70;99.90;;;;;;5111772;28;20019;-66
2021/10/02 00:52:21;;;;;;;8.95;3.95;;;12.70;99.90;;;;;;5110236;28;20126;-65
2021/10/02 00:54:48;;;;;;;10.73;3.58;;;12.70;99.90;;;;;;5111729;28;20043;-66
2021/10/02 00:57:15;;;;;;;11.32;3.97;;;12.70;99.90;;;;;;5111276;28;20485;-66
2021/10/02 00:59:41;;;;;;;11.18;3.90;;;12.70;99.90;;;;;;5110135;28;20043;-66
2021/10/02 01:02:24;;;;;;;6.15;3.67;;;12.70;99.90;;;;;;5111009;28;20486;-66
2021/10/02 01:08:00;;;;;;;7.63;4.15;;;12.70;99.90;;;;;;5112249;27;20355;-66
2021/10/02 01:10:37;;;;;;;10.13;4.70;;;12.70;99.90;;;;;;5111947;28;20047;-66
2021/10/02 01:13:24;;;;;;;9.70;4.60;;;12.70;99.90;;;;;;5111903;28;20095;-67
2021/10/02 01:16:30;;;;;;;10.30;4.70;;;12.70;99.90;;;;;;5111852;28;20107;-66
2021/10/02 01:19:31;;;;;;;7.45;3.95;;;12.70;99.90;;;;;;5111106;28;20431;-66
2021/10/02 01:22:18;;;;;;;9.95;4.40;;;12.70;99.90;;;;;;5111736;28;20108;-66
2021/10/02 01:25:06;;;;;;;6.50;3.95;;;12.70;99.90;;;;;;5111157;28;20456;-66
2021/10/02 01:28:12;;;;;;;11.30;4.82;;;12.70;99.90;;;;;;5111119;28;20020;-66
2021/10/02 01:33:50;;;;;;;8.15;4.85;;;12.70;99.90;;;;;;5111221;28;20030;-66
2021/10/02 01:36:28;;;;;;;7.53;3.80;;;12.80;99.90;;;;;;5111482;28;20023;-67
2021/10/02 01:47:23;;;;;;;8.93;4.05;;;12.80;99.90;;;;;;5110477;28;20035;-66
2021/10/02 01:49:55;;;;;;;7.32;4.15;;;12.80;99.90;;;;;;5111216;28;20027;-65
2021/10/02 01:52:25;;;;;;;6.38;3.97;;;12.80;99.90;;;;;;5111146;28;20019;-66
2021/10/02 01:54:54;;;;;;;6.68;4.07;;;12.80;99.90;;;;;;5111104;28;20026;-66
2021/10/02 01:57:23;;;;;;;7.75;3.72;;;12.70;99.90;;;;;;5111051;28;20016;-66
2021/10/02 01:59:51;;;;;;;6.30;4.30;;;12.70;99.90;;;;;;5110997;28;20024;-66
2021/10/02 02:02:19;;;;;;;7.85;4.10;;;12.70;99.90;;;;;;5110687;28;20069;-66
2021/10/02 02:04:46;;;;;;;8.00;4.10;;;12.70;99.90;;;;;;5110370;28;20453;-67
2021/10/02 02:07:13;;;;;;;4.65;3.53;;;12.70;99.90;;;;;;5110097;28;20071;-66
2021/10/02 02:09:40;;;;;;;7.68;3.97;;;12.70;99.90;;;;;;5110848;28;20051;-66
2021/10/02 02:12:12;;;;;;;8.55;4.00;;;12.80;99.90;;;;;;5110776;28;20024;-66
2021/10/02 02:14:41;;;;;;;5.43;3.38;;;12.80;99.90;;;;;;5110757;28;20020;-67
2021/10/02 02:17:08;;;;;;;7.35;3.90;;;12.80;99.90;;;;;;5107060;28;20367;-66
2021/10/02 02:19:34;;;;;;;7.60;3.75;;;12.80;99.90;;;;;;5096780;28;20047;-65
2021/10/02 02:22:01;;;;;;;6.28;3.63;;;12.80;99.90;;;;;;5096710;28;20031;-67
2021/10/02 02:24:27;;;;;;;3.92;3.38;;;12.80;99.90;;;;;;5096952;28;20030;-66
2021/10/02 02:26:53;;;;;;;4.78;3.35;;;12.80;99.90;;;;;;5096580;28;20107;-65
2021/10/02 02:29:18;;;;;;;4.03;3.50;;;12.80;99.90;;;;;;5096862;28;20081;-67
2021/10/02 02:31:44;;;;;;;6.60;3.80;;;12.80;99.90;;;;;;5096561;28;20028;-67
2021/10/02 02:34:11;;;;;;;8.48;3.25;;;12.80;99.90;;;;;;5096475;28;20383;-66
2021/10/02 02:36:36;;;;;;;7.50;3.40;;;12.80;99.90;;;;;;5096762;28;20024;-67
2021/10/02 02:39:02;;;;;;;7.07;4.00;;;12.80;99.90;;;;;;5096423;28;20036;-66
2021/10/02 02:41:28;;;;;;;9.27;3.38;;;12.90;99.90;;;;;;5095100;28;20032;-66
2021/10/02 02:43:53;;;;;;;6.97;3.33;;;12.90;99.90;;;;;;5095168;28;20028;-67
2021/10/02 02:46:26;;;;;;;9.55;3.72;;;12.90;99.90;;;;;;5096460;28;20024;-67
2021/10/02 02:49:03;;;;;;;5.57;3.33;;;12.90;99.90;;;;;;5096523;28;20023;-67
2021/10/02 02:51:38;;;;;;;5.25;3.35;;;12.90;99.90;;;;;;5096435;28;20024;-67
2021/10/02 02:54:16;;;;;;;4.93;3.10;;;12.90;99.90;;;;;;5096408;28;20024;-66
2021/10/02 02:56:45;;;;;;;8.90;3.47;;;12.90;99.90;;;;;;5096375;28;20106;-66
2021/10/02 02:59:24;;;;;;;7.63;3.50;;;12.90;99.90;;;;;;5096015;28;20016;-67
2021/10/02 03:01:52;;;;;;;5.72;3.60;;;12.90;99.90;;;;;;5095941;28;20028;-66
2021/10/02 03:04:20;;;;;;;5.57;3.42;;;12.90;99.90;;;;;;5094751;28;20031;-66
2021/10/02 03:06:50;;;;;;;4.40;2.83;;;12.90;99.90;;;;;;5095508;28;20079;-66
2021/10/02 03:09:17;;;;;;;4.22;3.25;;;12.90;99.90;;;;;;5096107;28;20016;-67
2021/10/02 03:11:49;;;;;;;6.68;3.30;;;12.90;99.90;;;;;;5096061;28;20071;-66
2021/10/02 03:14:19;;;;;;;4.83;3.17;;;12.90;99.90;;;;;;5096051;28;20065;-66
2021/10/02 03:16:46;;;;;;;4.90;3.33;;;12.90;99.90;;;;;;5095440;28;20362;-67
2021/10/02 03:19:13;;;;;;;5.68;3.25;;;12.90;99.90;;;;;;5095929;28;20020;-67
2021/10/02 03:21:40;;;;;;;4.00;2.95;;;12.90;99.90;;;;;;5095636;28;20020;-66
2021/10/02 03:24:07;;;;;;;5.43;3.50;;;12.90;99.90;;;;;;5095286;28;20016;-66
2021/10/02 03:26:33;;;;;;;4.50;3.38;;;12.90;99.90;;;;;;5095710;28;20062;-67
2021/10/02 03:28:59;;;;;;;6.18;3.25;;;13.00;99.90;;;;;;5094541;28;20461;-66
2021/10/02 03:31:26;;;;;;;4.72;3.38;;;13.00;99.90;;;;;;5095638;28;20117;-67
2021/10/02 03:33:52;;;;;;;5.30;3.92;;;12.90;99.90;;;;;;5095636;28;20027;-66
2021/10/02 03:36:18;;;;;;;4.15;3.63;;;12.90;99.90;;;;;;5095553;28;20539;-66
2021/10/02 03:38:45;;;;;;;7.45;3.67;;;12.90;99.90;;;;;;5095234;28;20052;-66
2021/10/02 03:41:11;;;;;;;8.05;3.78;;;12.90;99.90;;;;;;5095194;28;20040;-67
2021/10/02 03:43:38;;;;;;;4.22;3.38;;;12.90;99.90;;;;;;5093666;28;20117;-67
2021/10/02 03:46:04;;;;;;;4.88;3.90;;;13.00;99.90;;;;;;5093865;28;20381;-66
2021/10/02 03:48:30;;;;;;;6.65;3.88;;;13.00;99.90;;;;;;5095043;28;20107;-66
2021/10/02 03:50:58;;;;;;;3.95;3.38;;;13.00;99.90;;;;;;5094749;28;20539;-67
2021/10/02 03:53:24;;;;;;;4.43;3.70;;;13.00;99.90;;;;;;5095231;28;20020;-66
2021/10/02 03:55:49;;;;;;;6.35;3.78;;;13.00;99.90;;;;;;5076526;28;20024;-67
2021/10/02 03:58:15;;;;;;;4.10;3.78;;;13.10;99.90;;;;;;5094862;28;20043;-65
2021/10/02 04:00:41;;;;;;;4.60;4.20;;;13.00;99.90;;;;;;5094827;28;20024;-66
2021/10/02 04:03:06;;;;;;;6.18;4.15;;;13.10;99.90;;;;;;5093906;28;20114;-66
2021/10/02 04:05:32;;;;;;;5.47;4.10;;;13.00;99.90;;;;;;5094708;28;20040;-66
2021/10/02 04:07:57;;;;;;;4.80;4.15;;;13.00;99.90;;;;;;5094699;28;20473;-66
2021/10/02 04:10:23;;;;;;;4.75;4.25;;;13.00;99.90;;;;;;5094660;28;20084;-66
2021/10/02 04:12:49;;;;;;;4.60;4.10;;;13.10;99.90;;;;;;5094901;28;20031;-65
2021/10/02 04:15:14;;;;;;;4.70;4.07;;;13.00;99.90;;;;;;5095111;28;20460;-66
2021/10/02 04:17:40;;;;;;;3.92;3.63;;;13.10;99.90;;;;;;5094820;28;20048;-66
2021/10/02 04:20:06;;;;;;;5.93;4.40;;;13.10;99.90;;;;;;5093262;28;20485;-66
2021/10/02 04:22:32;;;;;;;7.18;4.63;;;13.10;99.90;;;;;;5092941;28;20028;-66
2021/10/02 04:24:58;;;;;;;6.57;4.38;;;13.10;99.90;;;;;;5094676;28;20070;-66
2021/10/02 04:27:23;;;;;;;7.68;4.30;;;13.10;99.90;;;;;;5094535;28;20036;-66
2021/10/02 04:29:49;;;;;;;5.15;4.20;;;13.10;99.90;;;;;;5093423;28;20034;-65
2021/10/02 04:32:14;;;;;;;4.93;4.35;;;13.10;99.90;;;;;;5094187;28;20055;-66
2021/10/02 04:34:41;;;;;;;4.93;4.47;;;13.10;99.90;;;;;;5094537;28;20024;-66
2021/10/02 04:37:07;;;;;;;6.07;5.10;;;13.10;99.90;;;;;;5094210;28;20024;-65
2021/10/02 04:39:32;;;;;;;6.72;5.28;;;13.10;99.90;;;;;;5094473;28;20024;-66
2021/10/02 04:41:58;;;;;;;7.00;5.55;;;13.10;99.90;;;;;;5094167;28;20355;-66
2021/10/02 04:44:24;;;;;;;6.05;5.22;;;13.10;99.90;;;;;;5094090;28;20431;-66
2021/10/02 04:46:49;;;;;;;7.65;6.82;;;13.10;99.90;;;;;;5094003;28;20027;-66
2021/10/02 04:49:15;;;;;;;6.88;6.18;;;13.10;99.90;;;;;;5093774;28;20058;-66
2021/10/02 04:51:40;;;;;;;11.52;8.85;;;13.10;99.90;;;;;;5094011;28;20046;-66
2021/10/02 04:54:06;;;;;;;11.48;9.00;;;13.10;99.90;;;;;;5094274;28;20028;-66
2021/10/02 04:56:32;;;;;;;12.40;8.82;;;13.10;99.90;;;;;;5094199;28;20032;-66
2021/10/02 04:58:59;;;;;;;14.52;10.35;;;13.10;99.90;;;;;;5094198;28;20520;-66
2021/10/02 05:01:24;;;;;;;12.68;9.55;;;13.20;99.90;;;;;;5094202;28;20039;-66
2021/10/02 05:03:50;;;;;;;11.55;10.13;;;13.20;99.90;;;;;;5094165;28;20024;-66
2021/10/02 05:06:16;;;;;;;12.05;9.27;;;13.20;99.90;;;;;;5093510;28;20561;-66
2021/10/02 05:08:43;;;;;;;11.00;9.45;;;13.20;99.90;;;;;;5094127;28;20103;-66
2021/10/02 05:11:08;;;;;;;12.73;9.65;;;13.20;99.90;;;;;;5094092;28;20027;-66
2021/10/02 05:13:34;;;;;;;10.45;8.35;;;13.20;99.90;;;;;;5094114;28;20024;-66
2021/10/02 05:16:01;;;;;;;8.57;7.68;;;13.20;99.90;;;;;;5093479;28;20032;-66
2021/10/02 05:18:27;;;;;;;7.88;6.88;;;13.20;99.90;;;;;;5094040;28;20028;-65
2021/10/02 05:20:53;;;;;;;7.43;5.97;;;13.20;99.90;;;;;;5094046;28;20032;-66
2021/10/02 05:23:18;;;;;;;8.50;7.07;;;13.20;99.90;;;;;;5093953;28;20020;-66
2021/10/02 05:25:44;;;;;;;7.68;6.28;;;13.20;99.90;;;;;;5093369;28;20420;-66
2021/10/02 05:28:10;;;;;;;8.27;7.30;;;13.20;99.90;;;;;;5093641;28;20171;-66
2021/10/02 05:30:35;;;;;;;12.27;7.85;;;13.20;99.90;;;;;;5093948;28;20023;-66
2021/10/02 05:33:03;;;;;;;9.82;8.82;;;13.20;99.90;;;;;;5093600;28;20461;-66
2021/10/02 05:35:30;;;;;;;10.73;8.35;;;13.20;99.90;;;;;;5093874;28;20099;-66
2021/10/02 05:37:56;;;;;;;8.13;7.32;;;13.30;99.90;;;;;;5092710;28;20410;-66
2021/10/02 05:40:21;;;;;;;9.02;6.78;;;13.30;99.90;;;;;;5093274;28;20103;-66
2021/10/02 05:42:47;;;;;;;7.55;6.63;;;13.30;99.90;;;;;;5093846;28;20061;-66
2021/10/02 05:45:12;;;;;;;11.18;6.80;;;13.30;99.90;;;;;;5093749;28;20374;-66
2021/10/02 05:47:38;;;;;;;11.98;7.38;;;13.30;99.90;;;;;;5093128;28;20115;-66
2021/10/02 05:50:04;;;;;;;8.10;7.15;;;13.30;99.90;;;;;;5093438;28;20052;-66
2021/10/02 05:52:30;;;;;;;10.00;7.85;;;13.30;99.90;;;;;;5094384;28;20085;-66
2021/10/02 05:54:55;;;;;;;11.07;7.75;;;13.30;99.90;;;;;;5097017;28;20020;-65
2021/10/02 05:57:21;;;;;;;10.68;8.32;;;13.30;99.90;;;;;;5097178;28;20488;-66
2021/10/02 05:59:48;;;;;;;13.50;8.93;;;13.30;99.90;;;;;;5097165;28;20035;-65
2021/10/02 06:02:13;;;;;;;12.05;8.48;;;13.30;99.90;;;;;;5096863;28;20545;-66
2021/10/02 06:04:39;;;;;;;9.98;8.57;;;13.30;99.90;;;;;;5097110;28;20171;-66
2021/10/02 06:07:05;;;;;;;10.45;8.30;;;13.30;99.90;;;;;;5096604;28;20075;-66
2021/10/02 06:09:31;;;;;;;10.40;8.63;;;13.40;99.90;;;;;;5097255;28;20457;-66
2021/10/02 06:11:56;;;;;;;9.80;8.65;;;13.30;99.90;;;;;;5096947;28;20431;-66
2021/10/02 06:14:22;;;;;;;10.50;8.60;;;13.40;99.90;;;;;;5097151;28;20028;-66
2021/10/02 06:16:48;;;;;;;11.38;8.45;;;13.30;99.90;;;;;;5097087;28;20024;-66
2021/10/02 06:19:14;;;;;;;11.23;8.55;;;13.30;99.90;;;;;;5097082;28;20107;-66
2021/10/02 06:21:40;;;;;;;9.82;8.68;;;13.40;99.90;;;;;;5097027;28;20020;-66
2021/10/02 06:24:06;;;;;;;9.68;7.97;;;13.40;99.90;;;;;;5095187;28;20038;-66
2021/10/02 06:26:36;;;;;;;7.18;6.25;;;13.50;99.90;;;;;;5096820;28;20035;-66
2021/10/02 06:29:01;;;;;;;7.22;6.00;;;13.50;99.90;;;;;;5096590;28;20486;-66
2021/10/02 06:31:27;;;;;;;7.28;5.97;;;13.60;99.90;;;;;;5096875;28;20027;-66
2021/10/02 06:33:53;;;;;;;8.68;5.70;;;13.60;99.90;;;;;;5096840;28;20032;-66
2021/10/02 06:36:18;;;;;;;7.88;5.40;;;13.60;99.90;;;;;;5096758;28;20085;-67
2021/10/02 06:38:44;;;;;;;8.57;4.97;;;13.60;99.90;;;;;;5096458;28;20143;-66
2021/10/02 06:41:09;;;;;;;6.10;5.18;;;13.50;99.90;;;;;;5096632;28;20035;-67
2021/10/02 06:43:35;;;;;;;5.55;4.38;;;13.50;99.90;;;;;;5096644;28;20028;-66
2021/10/02 06:46:02;;;;;;;5.82;3.95;;;13.50;99.90;;;;;;5095327;28;20024;-66
2021/10/02 06:48:28;;;;;;;5.85;4.15;;;13.50;99.90;;;;;;5096543;28;20057;-66
2021/10/02 06:50:53;;;;;;;5.78;4.10;;;13.50;99.90;;;;;;5096209;28;20121;-67
2021/10/02 06:53:19;;;;;;;5.68;4.00;;;13.50;99.90;;;;;;5096451;28;20020;-66
2021/10/02 06:55:44;;;;;;;8.57;4.55;;;13.50;99.90;;;;;;5096418;28;20020;-67
2021/10/02 06:58:10;;;;;;;4.97;4.10;;;13.50;99.90;;;;;;5096366;28;20039;-67
2021/10/02 07:00:36;;;;;;;5.57;3.65;;;13.50;99.90;;;;;;5096332;28;20024;-67
2021/10/02 07:03:02;;;;;;;4.30;3.67;;;13.50;99.90;;;;;;5096197;28;20081;-67
2021/10/02 07:05:28;;;;;;;4.50;3.13;;;13.50;99.90;;;;;;5095830;28;20048;-67
2021/10/02 07:07:54;;;;;;;6.25;3.42;;;13.50;99.90;;;;;;5096179;28;20032;-67
2021/10/02 07:10:21;;;;;;;4.82;3.03;;;13.60;99.90;;;;;;5095084;28;20028;-67
2021/10/02 07:12:48;;;;;;;5.55;3.50;;;13.60;99.90;;;;;;5094381;28;20031;-66
2021/10/02 07:15:13;;;;;;;6.93;3.92;;;13.60;99.90;;;;;;5096017;28;20065;-66
2021/10/02 07:17:39;;;;;;;3.58;3.00;;;13.60;99.90;;;;;;5095669;28;20377;-67
2021/10/02 07:20:06;;;;;;;3.63;2.90;;;13.60;99.90;;;;;;5095926;28;20036;-66
2021/10/02 07:22:35;;;;;;;4.72;2.83;;;13.70;99.90;;;;;;5095852;28;20059;-67
2021/10/02 07:25:03;;;;;;;5.35;2.83;;;13.70;99.90;;;;;;5095843;28;20024;-66
2021/10/02 07:27:28;;;;;;;3.70;2.50;;;13.80;99.90;;;;;;5094569;28;20016;-67
2021/10/02 07:29:54;;;;;;;3.88;3.05;;;13.80;99.90;;;;;;5095208;28;20027;-67
2021/10/02 07:32:20;;;;;;;4.07;2.72;;;13.80;99.90;;;;;;5095117;28;20031;-67
2021/10/02 07:34:45;;;;;;;3.00;2.42;;;13.80;99.90;;;;;;5095668;28;20098;-66
2021/10/02 07:37:11;;;;;;;3.00;2.67;;;13.70;99.90;;;;;;5095584;28;20066;-67
2021/10/02 07:39:36;;;;;;;3.28;2.70;;;13.70;99.90;;;;;;5095497;28;20035;-67
2021/10/02 07:42:02;;;;;;;6.70;2.88;;;13.70;99.90;;;;;;5094898;28;20024;-66
2021/10/02 07:44:30;;;;;;;5.85;3.03;;;13.70;99.90;;;;;;5095189;28;20032;-66
2021/10/02 07:46:57;;;;;;;3.10;2.65;;;13.80;99.90;;;;;;5095081;28;20016;-66
2021/10/02 07:49:24;;;;;;;3.05;2.20;;;13.80;99.90;;;;;;5095017;28;20111;-67
2021/10/02 07:51:50;;;;;;;2.72;2.00;;;13.90;99.90;;;;;;5095008;28;20013;-67
2021/10/02 07:54:18;;;;;;;2.15;1.75;;;14.00;99.90;;;;;;5094084;28;20028;-67
2021/10/02 07:56:44;;;;;;;2.55;1.80;;;14.00;99.90;;;;;;5095194;28;20020;-67
2021/10/02 07:59:12;;;;;;;2.42;1.70;;;14.10;99.90;;;;;;5095146;28;20069;-65
2021/10/02 08:01:38;;;;;;;2.60;1.60;;;14.20;99.90;;;;;;5093892;28;20537;-67
2021/10/02 08:04:05;;;;;;;2.20;2.00;;;14.10;99.90;;;;;;5094475;28;20153;-67
2021/10/02 08:06:32;;;;;;;2.20;1.92;;;14.10;99.90;;;;;;5094423;28;20478;-67
2021/10/02 08:08:58;;;;;;;3.05;2.28;;;14.10;99.90;;;;;;5094962;28;20035;-67
2021/10/02 08:11:25;;;;;;;3.25;1.95;;;14.20;99.90;;;;;;5093179;28;20027;-67
2021/10/02 08:13:52;;;;;;;2.20;1.80;;;14.20;99.90;;;;;;5094310;28;20024;-65
2021/10/02 08:16:18;;;;;;;2.97;2.22;;;14.30;99.90;;;;;;5092747;28;20028;-66
2021/10/02 08:18:46;;;;;;;3.25;1.92;;;14.30;99.90;;;;;;5094779;28;20028;-67
2021/10/02 08:21:14;;;;;;;2.20;2.00;;;14.50;99.90;;;;;;5094180;28;20070;-67
2021/10/02 08:23:41;;;;;;;3.45;2.40;;;14.50;99.90;;;;;;5094432;28;20028;-67
2021/10/02 08:26:07;;;;;;;3.33;1.90;;;14.70;99.90;;;;;;5094315;28;20172;-67
2021/10/02 08:28:33;;;;;;;1.73;1.63;;;14.70;99.90;;;;;;5094358;28;20069;-68
2021/10/02 08:31:01;;;;;;;3.50;1.52;;;14.70;99.90;;;;;;5094593;28;20097;-65
2021/10/02 08:33:26;;;;;;;1.92;1.70;;;14.80;99.90;;;;;;5094270;28;20024;-65
2021/10/02 08:35:52;;;;;;;1.92;1.70;;;14.80;99.90;;;;;;5094508;28;20040;-67
2021/10/02 08:38:18;;;;;;;4.60;2.05;;;14.80;99.90;;;;;;5094173;28;20024;-67
2021/10/02 08:40:45;;;;;;;1.83;1.50;;;14.80;99.90;;;;;;5094432;28;20031;-67
2021/10/02 08:43:13;;;;;;;2.70;1.67;;;14.90;99.90;;;;;;5093786;28;20019;-67
2021/10/02 08:45:40;;;;;;;2.03;1.70;;;14.80;99.90;;;;;;5092483;28;20165;-67
2021/10/02 08:48:06;;;;;;;1.90;1.70;;;14.80;99.90;;;;;;5094026;28;20357;-67
2021/10/02 08:50:31;;;;;;;2.40;1.80;;;14.90;99.90;;;;;;5094026;28;20020;-67
2021/10/02 08:52:59;;;;;;;2.28;1.70;;;15.10;99.90;;;;;;5093988;28;20031;-67
2021/10/02 08:55:25;;;;;;;2.58;2.00;;;15.10;99.90;;;;;;5093702;28;20107;-67
2021/10/02 08:57:52;;;;;;;3.90;2.10;;;15.20;99.90;;;;;;5094232;28;20078;-67
2021/10/02 09:00:21;;;;;;;2.72;1.90;;;15.20;99.90;;;;;;5092393;28;20028;-67
2021/10/02 09:02:49;;;;;;;4.60;1.98;;;15.30;99.90;;;;;;5075941;28;20478;-67
2021/10/02 09:05:15;;;;;;;2.03;1.80;;;15.30;99.90;;;;;;5093908;28;20020;-68
2021/10/02 09:07:41;;;;;;;4.07;2.10;;;15.40;99.90;;;;;;5093965;28;20020;-67
2021/10/02 09:10:10;;;;;;;4.38;2.00;;;15.40;99.90;;;;;;5093559;28;20040;-67
2021/10/02 09:12:38;;;;;;;2.58;2.00;;;15.40;99.90;;;;;;5093517;28;20487;-67
2021/10/02 09:15:05;;;;;;;2.58;1.77;;;15.30;99.90;;;;;;5094056;28;20020;-67
2021/10/02 09:17:31;;;;;;;3.33;1.60;;;15.30;99.90;;;;;;5092562;28;20073;-67
2021/10/02 09:19:58;;;;;;;4.97;1.80;;;15.20;99.90;;;;;;5094013;28;20031;-67
2021/10/02 09:22:25;;;;;;;2.50;1.70;;;15.20;99.90;;;;;;5093699;28;20020;-67
2021/10/02 09:24:52;;;;;;;2.38;1.70;;;15.20;99.90;;;;;;5076303;28;20036;-67
2021/10/02 09:27:21;;;;;;;5.13;1.65;;;15.20;99.90;;;;;;5093986;28;20024;-67
2021/10/02 09:29:50;;;;;;;1.95;1.50;;;15.30;99.90;;;;;;5098033;28;20432;-66
2021/10/02 09:32:21;;;;;;;2.58;1.55;;;15.30;99.90;;;;;;5096849;28;20418;-67
2021/10/02 09:34:51;;;;;;;2.13;1.77;;;15.30;99.90;;;;;;5097972;28;20035;-67
2021/10/02 09:37:25;;;;;;;2.78;1.70;;;15.40;99.90;;;;;;5096491;28;20036;-67
2021/10/02 09:39:56;;;;;;;2.05;1.63;;;15.50;99.90;;;;;;5097819;28;20024;-68
2021/10/02 09:42:27;;;;;;;4.90;2.00;;;15.50;99.90;;;;;;5096289;28;20024;-67
2021/10/02 09:44:57;;;;;;;2.40;1.67;;;15.60;99.90;;;;;;5097455;28;20020;-67
2021/10/02 09:47:22;;;;;;;7.13;2.58;;;15.60;99.90;;;;;;5097582;28;20054;-67
2021/10/02 09:49:48;;;;;;;2.85;1.83;;;15.50;99.90;;;;;;5097630;28;20418;-67
2021/10/02 09:52:37;;;;;;;3.63;2.15;;;15.60;99.90;;;;;;5097623;28;20016;-67
2021/10/02 09:55:25;;;;;;;2.13;1.55;;;15.70;99.90;;;;;;5097514;28;20020;-67
2021/10/02 09:57:57;;;;;;;3.22;1.60;;;15.90;99.90;;;;;;5096993;28;20024;-67
2021/10/02 10:00:26;;;;;;;2.75;1.65;;;16.00;99.90;;;;;;5097443;28;20103;-67
2021/10/02 10:02:52;;;;;;;4.72;1.80;;;16.20;99.90;;;;;;5097362;28;20053;-67
2021/10/02 10:05:18;;;;;;;2.70;1.63;;;16.00;99.90;;;;;;5096853;28;20024;-67
2021/10/02 10:07:54;;;;;;;1.52;1.42;;;16.10;99.90;;;;;;5096959;28;20030;-67
2021/10/02 10:10:20;;;;;;;3.10;1.80;;;16.10;99.90;;;;;;5096973;28;20024;-67
2021/10/02 10:12:46;;;;;;;2.17;1.90;;;15.90;99.90;;;;;;5095733;28;20020;-67
2021/10/02 10:15:47;;;;;;;2.75;1.92;;;15.90;99.90;;;;;;5096875;28;20461;-67
2021/10/02 10:18:15;;;;;;;2.10;1.60;;;15.70;99.90;;;;;;5095289;28;20036;-67
2021/10/02 10:20:52;;;;;;;3.55;1.80;;;15.60;99.90;;;;;;5096808;28;20024;-67
2021/10/02 10:23:29;;;;;;;3.28;1.70;;;15.50;99.90;;;;;;5096870;28;20480;-67
2021/10/02 10:25:58;;;;;;;3.45;1.98;;;15.50;99.90;;;;;;5096883;28;20453;-67
2021/10/02 10:28:26;;;;;;;1.75;1.63;;;15.50;99.90;;;;;;5096651;28;20016;-68
2021/10/02 10:30:53;;;;;;;3.75;1.95;;;15.60;99.90;;;;;;5096820;28;20374;-67
2021/10/02 10:33:20;;;;;;;4.03;2.08;;;15.60;99.90;;;;;;5096674;28;20024;-67
2021/10/02 10:35:50;;;;;;;2.13;1.88;;;15.60;99.90;;;;;;5095031;28;20016;-66
2021/10/02 10:38:19;;;;;;;2.97;2.00;;;15.70;99.90;;;;;;5095978;28;20070;-67
2021/10/02 10:40:45;;;;;;;4.45;2.33;;;15.90;99.90;;;;;;5096453;28;20020;-67
2021/10/02 10:43:11;;;;;;;3.75;2.13;;;16.00;99.90;;;;;;5096687;28;20085;-67
2021/10/02 10:45:38;;;;;;;2.60;1.90;;;15.90;99.90;;;;;;5096550;28;20446;-67
2021/10/02 10:48:05;;;;;;;2.45;1.95;;;15.80;99.90;;;;;;5096543;28;20031;-67
2021/10/02 10:50:33;;;;;;;5.28;1.95;;;15.70;99.90;;;;;;5094690;28;20410;-67
2021/10/02 10:53:00;;;;;;;5.75;2.53;;;15.60;99.90;;;;;;5096475;28;20020;-67
2021/10/02 10:55:26;;;;;;;4.03;1.90;;;15.60;99.90;;;;;;5096147;28;20027;-67
2021/10/02 10:57:55;;;;;;;3.70;2.22;;;15.60;99.90;;;;;;5095815;28;20077;-67
2021/10/02 11:00:39;;;;;;;5.03;2.05;;;15.60;99.90;;;;;;5096011;28;20030;-67
2021/10/02 11:03:08;;;;;;;2.10;1.90;;;15.60;99.90;;;;;;5096028;28;20483;-67
2021/10/02 11:08:19;;;;;;;4.25;2.13;;;15.60;99.90;;;;;;5071676;28;20387;-67
2021/10/02 11:10:51;;;;;;;2.45;1.90;;;15.70;99.90;;;;;;5071395;28;20027;-67
2021/10/02 11:16:41;;;;;;;3.67;2.55;;;15.90;99.90;;;;;;5112205;27;20636;-67
2021/10/02 11:19:29;;;;;;;4.18;2.15;;;16.10;99.90;;;;;;5111967;28;20110;-68
2021/10/02 11:22:37;;;;;;;3.35;1.75;;;16.30;99.90;;;;;;5111279;28;20416;-67
2021/10/02 11:25:17;;;;;;;3.08;1.98;;;16.40;99.90;;;;;;5111174;28;20020;-67
2021/10/02 11:27:43;;;;;;;3.15;1.92;;;16.40;99.90;;;;;;5111759;28;20346;-67
2021/10/02 11:30:14;;;;;;;2.97;1.70;;;16.50;99.90;;;;;;5111718;28;20058;-67
2021/10/02 11:32:40;;;;;;;2.00;1.50;;;16.70;99.90;;;;;;5111106;28;20024;-67
2021/10/02 11:35:29;;;;;;;5.32;1.75;;;16.60;99.90;;;;;;5111533;28;20074;-67
2021/10/02 11:43:21;;;;;;;2.25;1.98;;;16.40;99.90;;;;;;5112177;27;20306;-67
2021/10/02 11:48:36;;;;;;;2.20;1.63;;;16.30;99.90;;;;;;5112216;27;20291;-67
2021/10/02 11:51:24;;;;;;;2.50;1.70;;;16.30;99.90;;;;;;5111612;28;20035;-67
2021/10/02 11:53:56;;;;;;;2.30;2.10;;;16.30;99.90;;;;;;5111282;28;20377;-67
2021/10/02 11:56:26;;;;;;;3.25;2.20;;;16.30;99.90;;;;;;5111848;28;20028;-67
2021/10/02 11:58:55;;;;;;;3.05;1.80;;;16.30;99.90;;;;;;5111500;28;20032;-65
2021/10/02 12:01:24;;;;;;;3.40;1.90;;;16.30;99.90;;;;;;5111431;28;20081;-67
2021/10/02 12:03:59;;;;;;;1.88;1.67;;;16.30;99.90;;;;;;5111415;28;20373;-67
2021/10/02 12:06:25;;;;;;;2.10;1.90;;;16.30;99.90;;;;;;5111315;28;20016;-67
2021/10/02 12:08:51;;;;;;;2.67;1.90;;;16.30;99.90;;;;;;5111068;28;20031;-67
2021/10/02 12:11:17;;;;;;;3.78;2.35;;;16.30;99.90;;;;;;5111536;28;20061;-67
2021/10/02 12:13:49;;;;;;;3.97;1.73;;;16.30;99.90;;;;;;5111230;28;20020;-67
2021/10/02 12:16:19;;;;;;;3.28;2.08;;;16.30;99.90;;;;;;5110885;28;20031;-67
2021/10/02 12:18:51;;;;;;;4.88;1.92;;;16.30;99.90;;;;;;5111410;28;20020;-67
2021/10/02 12:24:14;;;;;;;2.38;1.65;;;16.40;99.90;;;;;;5071668;28;20354;-68
2021/10/02 12:27:10;;;;;;;4.25;2.03;;;16.90;99.90;;;;;;5071069;28;20471;-67
2021/10/02 12:29:39;;;;;;;3.38;1.73;;;17.00;99.90;;;;;;5070717;28;20443;-67
2021/10/02 12:34:48;;;;;;;2.83;1.70;;;17.20;99.90;;;;;;5112248;27;20764;-67
2021/10/02 12:37:20;;;;;;;2.85;1.70;;;17.40;99.90;;;;;;5111927;28;20059;-66
2021/10/02 12:39:52;;;;;;;3.03;1.90;;;17.20;99.90;;;;;;5111833;28;20452;-67
2021/10/02 12:42:30;;;;;;;2.33;1.98;;;17.10;99.90;;;;;;5111734;28;20031;-67
2021/10/02 12:44:56;;;;;;;3.97;2.20;;;17.00;99.90;;;;;;5111777;28;20024;-67
2021/10/02 12:47:24;;;;;;;2.95;1.88;;;17.00;99.90;;;;;;5111496;28;20027;-67
2021/10/02 12:49:53;;;;;;;3.33;1.73;;;17.00;99.90;;;;;;5111704;28;20024;-67
2021/10/02 12:52:20;;;;;;;2.97;1.75;;;16.90;99.90;;;;;;5111314;28;20051;-66
2021/10/02 12:54:50;;;;;;;6.38;1.88;;;17.00;99.90;;;;;;5111602;28;20065;-67
2021/10/02 12:57:24;;;;;;;4.63;2.00;;;17.20;99.90;;;;;;5111528;28;20048;-67
2021/10/02 13:00:00;;;;;;;5.35;2.28;;;17.30;99.90;;;;;;5111229;28;20044;-66
2021/10/02 13:02:27;;;;;;;4.00;2.08;;;17.50;99.90;;;;;;5111460;28;20020;-66
2021/10/02 13:04:53;;;;;;;3.78;1.83;;;17.50;99.90;;;;;;5111406;28;20016;-67
2021/10/02 13:07:31;;;;;;;2.63;1.90;;;17.70;99.90;;;;;;5111376;28;20024;-67
2021/10/02 13:12:41;;;;;;;2.60;1.95;;;17.70;99.90;;;;;;5112189;27;20832;-68
2021/10/02 13:15:19;;;;;;;3.30;2.50;;;17.90;99.90;;;;;;5110780;28;20058;-66
2021/10/02 13:18:14;;;;;;;2.55;1.80;;;18.00;99.90;;;;;;5111912;28;20377;-67
2021/10/02 13:23:37;;;;;;;4.15;1.70;;;18.20;99.90;;;;;;5112100;27;20288;-67
2021/10/02 13:26:06;;;;;;;2.83;1.60;;;18.30;99.90;;;;;;5111854;28;20059;-67
2021/10/02 13:28:43;;;;;;;2.20;1.40;;;18.30;99.90;;;;;;5111844;28;20031;-66
2021/10/02 13:31:20;;;;;;;1.92;1.60;;;18.20;99.90;;;;;;5111511;28;20350;-67
2021/10/02 13:33:53;;;;;;;5.28;2.20;;;18.10;99.90;;;;;;5110650;28;20026;-68
2021/10/02 13:36:30;;;;;;;7.25;1.77;;;18.00;99.90;;;;;;5111180;28;20435;-65
2021/10/02 13:39:09;;;;;;;4.63;3.55;;;18.00;99.90;;;;;;5111375;28;20024;-67
2021/10/02 13:41:34;;;;;;;3.47;1.83;;;17.90;99.90;;;;;;5111546;28;20024;-67
2021/10/02 13:44:03;;;;;;;1.60;1.50;;;17.80;99.90;;;;;;5111590;28;20119;-67
2021/10/02 13:46:43;;;;;;;2.40;2.08;;;17.80;99.90;;;;;;5111262;28;20059;-66
2021/10/02 13:49:11;;;;;;;4.03;1.70;;;17.80;99.90;;;;;;5111165;28;20016;-67
2021/10/02 13:51:37;;;;;;;5.22;1.67;;;17.90;99.90;;;;;;5111457;28;20073;-67
2021/10/02 13:54:03;;;;;;;1.98;1.38;;;18.00;99.90;;;;;;5111391;28;20032;-67
2021/10/02 13:56:36;;;;;;;2.53;1.27;;;18.20;99.90;;;;;;5110775;28;20031;-66
2021/10/02 13:59:02;;;;;;;5.68;1.23;;;18.30;99.90;;;;;;5111008;28;20458;-67
2021/10/02 14:01:28;;;;;;;2.05;1.80;;;18.40;99.90;;;;;;5109467;28;20172;-66
2021/10/02 14:03:53;;;;;;;1.15;0.98;;;18.20;99.90;;;;;;5111244;28;20065;-67
2021/10/02 14:06:19;;;;;;;2.13;1.50;;;18.10;99.90;;;;;;5111206;28;20051;-67
2021/10/02 14:08:44;;;;;;;3.28;1.85;;;18.10;99.90;;;;;;5111111;28;20523;-66
2021/10/02 14:11:10;;;;;;;2.83;1.67;;;18.00;99.90;;;;;;5110734;28;20111;-67